Time;durP1;ratioP1;P1;durP2;ratioP2;P2;SDS_P1;SDS_P2;PMS_P1;PMS_P2;Temp;Humidity;BMP_temperature;BMP_pressure;BME280_temperature;BME280_humidity;BME280_pressure;Samples;Min_cycle;Max_cycle;Signal;HPM_P1;HPM_P2
2022/09/22 00:02:08;;;;;;;3.40;2.22;;;;;;;8.20;100.00;101873.47;5019646;28;20497;-79
2022/09/22 00:04:34;;;;;;;2.73;1.10;;;;;;;8.22;100.00;101883.00;5007175;28;20371;-79
2022/09/22 00:07:00;;;;;;;4.03;1.83;;;;;;;8.12;100.00;101860.72;5023579;28;20037;-80
2022/09/22 00:09:25;;;;;;;3.15;1.20;;;;;;;8.06;100.00;101853.25;5040455;28;20046;-80
2022/09/22 00:11:52;;;;;;;2.47;1.73;;;;;;;8.07;100.00;101856.75;5017543;28;20037;-80
2022/09/22 00:14:24;;;;;;;1.58;1.15;;;;;;;8.02;100.00;101859.75;5025290;28;20519;-79
2022/09/22 00:17:02;;;;;;;4.32;1.60;;;;;;;7.95;100.00;101846.09;5033719;28;20307;-79
2022/09/22 00:19:33;;;;;;;2.55;1.25;;;;;;;7.95;100.00;101847.91;5024409;28;20171;-80
2022/09/22 00:21:59;;;;;;;2.03;1.50;;;;;;;7.89;100.00;101845.72;5038334;28;20036;-78
2022/09/22 00:24:26;;;;;;;2.03;1.23;;;;;;;7.91;100.00;101851.75;5007761;28;20097;-79
2022/09/22 00:26:56;;;;;;;5.03;1.90;;;;;;;7.87;100.00;101852.97;5039902;28;20177;-79
2022/09/22 00:29:23;;;;;;;4.75;1.20;;;;;;;7.82;100.00;101845.34;5036091;28;20501;-80
2022/09/22 00:31:48;;;;;;;3.63;2.03;;;;;;;7.74;100.00;101829.13;5022219;28;20024;-79
2022/09/22 00:34:17;;;;;;;2.30;1.42;;;;;;;7.71;100.00;101835.53;5002652;28;20033;-79
2022/09/22 00:36:42;;;;;;;2.20;1.20;;;;;;;7.72;100.00;101837.22;5022815;28;20021;-79
2022/09/22 00:39:08;;;;;;;2.67;1.20;;;;;;;7.67;100.00;101838.53;5006569;28;20040;-79
2022/09/22 00:41:36;;;;;;;4.38;1.67;;;;;;;7.68;100.00;101835.78;5038879;28;20091;-80
2022/09/22 00:44:28;;;;;;;2.25;1.33;;;;;;;7.65;100.00;101835.16;5020047;28;20039;-79
2022/09/22 00:47:16;;;;;;;2.80;1.85;;;;;;;7.61;100.00;101830.06;4992271;28;20042;-79
2022/09/22 00:49:59;;;;;;;2.97;1.52;;;;;;;7.59;100.00;101829.34;5003236;28;20470;-79
2022/09/22 00:52:30;;;;;;;2.78;1.30;;;;;;;7.49;100.00;101822.16;4990287;28;20063;-80
2022/09/22 00:55:01;;;;;;;1.58;0.90;;;;;;;7.46;100.00;101820.59;5021316;28;20033;-80
2022/09/22 00:57:34;;;;;;;1.88;1.42;;;;;;;7.44;100.00;101811.06;5007093;28;20074;-80
2022/09/22 01:00:02;;;;;;;3.83;1.15;;;;;;;7.40;100.00;101808.63;5018359;28;20041;-79
2022/09/22 01:02:27;;;;;;;3.50;1.45;;;;;;;7.36;100.00;101809.81;5019853;28;20018;-79
2022/09/22 01:04:53;;;;;;;1.90;1.03;;;;;;;7.38;100.00;101815.88;5021493;28;20037;-79
2022/09/22 01:07:21;;;;;;;1.83;1.00;;;;;;;7.36;100.00;101812.47;5022536;28;20362;-78
2022/09/22 01:09:47;;;;;;;2.30;0.95;;;;;;;7.33;100.00;101810.06;5022481;28;20044;-79
2022/09/22 01:12:12;;;;;;;4.80;1.73;;;;;;;7.30;100.00;101806.78;5007817;28;20024;-79
2022/09/22 01:14:59;;;;;;;2.23;1.30;;;;;;;7.36;100.00;101816.94;5023727;28;20218;-78
2022/09/22 01:17:40;;;;;;;3.28;1.70;;;;;;;7.38;100.00;101817.69;5035731;28;20268;-79
2022/09/22 01:20:41;;;;;;;3.15;1.70;;;;;;;7.35;100.00;101839.16;5001871;28;20115;-79
2022/09/22 01:23:38;;;;;;;1.77;1.15;;;;;;;7.21;100.00;101821.63;5036583;28;20033;-79
2022/09/22 01:26:28;;;;;;;2.30;1.17;;;;;;;7.14;100.00;101815.91;5012861;28;20361;-80
2022/09/22 01:29:13;;;;;;;2.25;1.20;;;;;;;7.08;100.00;101808.38;5021207;28;20963;-80
2022/09/22 01:32:15;;;;;;;4.18;1.98;;;;;;;7.07;100.00;101809.34;5025013;28;20047;-80
2022/09/22 01:34:48;;;;;;;7.82;1.83;;;;;;;7.07;100.00;101811.13;5036476;28;20467;-79
2022/09/22 01:37:17;;;;;;;2.30;1.33;;;;;;;7.09;100.00;101818.03;5055653;28;20033;-79
2022/09/22 01:39:53;;;;;;;3.38;1.38;;;;;;;7.04;100.00;101814.03;5023703;28;20023;-79
2022/09/22 01:42:51;;;;;;;1.40;1.15;;;;;;;7.02;100.00;101819.44;5032723;28;20034;-79
2022/09/22 01:45:28;;;;;;;3.80;1.40;;;;;;;6.97;100.00;101811.81;5021182;28;20042;-79
2022/09/22 01:48:16;;;;;;;2.05;1.10;;;;;;;6.94;100.00;101805.91;5019418;28;20097;-79
2022/09/22 01:50:47;;;;;;;5.28;1.40;;;;;;;6.94;100.00;101808.56;5051890;28;20029;-79
2022/09/22 01:53:17;;;;;;;4.38;1.52;;;;;;;6.89;100.00;101800.09;5036038;28;20048;-79
2022/09/22 01:55:59;;;;;;;1.88;1.35;;;;;;;6.84;100.00;101791.63;5013370;28;20101;-79
2022/09/22 01:58:30;;;;;;;4.25;1.55;;;;;;;6.85;100.00;101788.00;5022126;28;20065;-79
2022/09/22 02:01:03;;;;;;;2.17;1.63;;;;;;;6.85;100.00;101793.31;5036375;28;20058;-79
2022/09/22 02:03:40;;;;;;;3.33;1.70;;;;;;;6.90;100.00;101807.09;5006606;28;20547;-79
2022/09/22 02:06:13;;;;;;;2.17;1.45;;;;;;;6.84;100.00;101799.59;5034313;28;20413;-79
2022/09/22 02:09:00;;;;;;;2.17;1.38;;;;;;;6.71;100.00;101784.53;5039512;28;20348;-79
2022/09/22 02:11:25;;;;;;;2.33;1.40;;;;;;;6.68;100.00;101781.28;5037071;28;20037;-79
2022/09/22 02:13:51;;;;;;;2.60;1.27;;;;;;;6.61;100.00;101774.72;5035718;28;20023;-79
2022/09/22 02:16:20;;;;;;;2.33;1.20;;;;;;;6.61;100.00;101772.91;5048202;28;20057;-79
2022/09/22 02:18:59;;;;;;;2.97;1.50;;;;;;;6.61;100.00;101772.91;5031842;28;20021;-79
2022/09/22 02:21:26;;;;;;;4.07;1.35;;;;;;;6.59;100.00;101772.16;5020011;28;20029;-79
2022/09/22 02:23:52;;;;;;;1.88;1.27;;;;;;;6.64;100.00;101774.50;5035375;28;20044;-79
2022/09/22 02:26:29;;;;;;;2.28;1.52;;;;;;;6.61;100.00;101764.94;5003752;28;20137;-79
2022/09/22 02:29:07;;;;;;;2.35;1.23;;;;;;;6.56;100.00;101769.75;5034791;28;20068;-79
2022/09/22 02:31:36;;;;;;;2.53;1.20;;;;;;;6.52;100.00;101770.91;5026547;28;20033;-79
2022/09/22 02:34:05;;;;;;;4.55;1.20;;;;;;;6.49;100.00;101763.19;5036801;28;20409;-79
2022/09/22 02:36:46;;;;;;;2.58;1.65;;;;;;;6.56;100.00;101785.66;5038810;28;20029;-79
2022/09/22 02:39:20;;;;;;;4.43;1.75;;;;;;;6.43;100.00;101775.06;5053996;28;20048;-79
2022/09/22 02:42:15;;;;;;;4.53;2.50;;;;;;;6.40;100.00;101767.34;5020578;28;20056;-79
2022/09/22 02:44:54;;;;;;;4.07;2.47;;;;;;;6.40;100.00;101777.97;5053762;28;20021;-79
2022/09/22 02:47:31;;;;;;;6.78;2.97;;;;;;;6.36;100.00;101771.16;5024530;28;20045;-79
2022/09/22 02:49:57;;;;;;;4.20;2.35;;;;;;;6.32;100.00;101759.94;5054556;28;20044;-79
2022/09/22 02:52:24;;;;;;;4.72;2.55;;;;;;;6.29;100.00;101756.66;5053413;28;20457;-79
2022/09/22 02:54:50;;;;;;;;;;;;;;;6.30;100.00;101761.03;5037560;28;20035;-79
2022/09/22 02:57:16;;;;;;;3.20;1.80;;;;;;;6.24;100.00;101743.72;5019262;28;19909;-79
2022/09/22 02:59:41;;;;;;;2.70;1.70;;;;;;;6.21;100.00;101754.56;5020749;28;20301;-79
2022/09/22 03:02:07;;;;;;;5.40;2.40;;;;;;;6.20;100.00;101759.97;5023157;28;20695;-79
2022/09/22 03:04:32;;;;;;;4.00;2.20;;;;;;;6.11;100.00;101742.91;5048717;28;20033;-79
2022/09/22 03:06:57;;;;;;;4.23;2.50;;;;;;;6.15;100.00;101757.63;5023700;28;20025;-79
2022/09/22 03:09:23;;;;;;;7.40;1.97;;;;;;;6.18;100.00;101757.44;5029997;28;20040;-78
2022/09/22 03:11:48;;;;;;;3.57;1.50;;;;;;;6.18;100.00;101749.50;5036031;28;20084;-79
2022/09/22 03:14:14;;;;;;;2.67;1.80;;;;;;;6.17;100.00;101758.38;5032162;28;20129;-79
2022/09/22 03:16:39;;;;;;;4.40;1.60;;;;;;;6.11;100.00;101756.16;5038890;28;20028;-79
2022/09/22 03:19:05;;;;;;;3.10;1.60;;;;;;;6.07;100.00;101758.19;5033404;28;20185;-79
2022/09/22 03:21:30;;;;;;;4.05;2.20;;;;;;;6.05;100.00;101751.31;5037521;28;20021;-78
2022/09/22 03:23:56;;;;;;;2.03;1.60;;;;;;;6.00;100.00;101742.84;5034590;28;20521;-79
2022/09/22 03:26:21;;;;;;;6.03;1.60;;;;;;;5.99;100.00;101751.72;5036677;28;20040;-79
2022/09/22 03:28:47;;;;;;;1.30;1.20;;;;;;;5.97;100.00;101748.34;5035644;28;20059;-79
2022/09/22 03:31:13;;;;;;;2.75;1.40;;;;;;;5.91;100.00;101729.22;5031274;28;20018;-79
2022/09/22 03:33:38;;;;;;;2.73;1.40;;;;;;;5.91;100.00;101739.81;5019604;28;20061;-79
2022/09/22 03:36:04;;;;;;;4.90;1.33;;;;;;;5.92;100.00;101744.19;5037040;28;20163;-79
2022/09/22 03:38:30;;;;;;;;;;;;;;;5.93;100.00;101743.22;5031996;28;20064;-79
2022/09/22 03:40:57;;;;;;;;;;;;;;;5.91;100.00;101737.19;5019495;28;20310;-79
2022/09/22 03:43:23;;;;;;;1.55;1.10;;;;;;;5.87;100.00;101732.19;5032874;28;19987;-79
2022/09/22 03:45:57;;;;;;;2.42;1.13;;;;;;;5.83;100.00;101715.69;5034297;28;20028;-78
2022/09/22 03:48:23;;;;;;;2.15;1.10;;;;;;;5.87;100.00;101727.75;5048452;28;20037;-79
2022/09/22 03:50:48;;;;;;;3.38;1.30;;;;;;;5.88;100.00;101732.09;5036132;28;20028;-78
2022/09/22 03:53:14;;;;;;;1.87;1.10;;;;;;;5.85;100.00;101736.75;5030305;28;20040;-80
2022/09/22 03:55:39;;;;;;;1.83;1.13;;;;;;;5.76;100.00;101730.31;5038085;28;20131;-78
2022/09/22 03:58:05;;;;;;;3.37;1.30;;;;;;;5.70;100.00;101730.75;5029267;28;20028;-79
2022/09/22 04:00:30;;;;;;;2.07;0.87;;;;;;;5.71;100.00;101729.78;5019144;28;20116;-79
2022/09/22 04:02:57;;;;;;;1.77;1.03;;;;;;;5.70;100.00;101730.75;5033661;28;20040;-79
2022/09/22 04:05:22;;;;;;;2.55;1.80;;;;;;;5.74;100.00;101737.53;5018113;28;20030;-79
2022/09/22 04:07:48;;;;;;;2.50;1.40;;;;;;;5.78;100.00;101754.03;5033163;28;20047;-79
2022/09/22 04:10:13;;;;;;;2.57;1.03;;;;;;;5.70;100.00;101750.13;5024506;28;20039;-78
2022/09/22 04:12:39;;;;;;;2.77;1.60;;;;;;;5.66;100.00;101748.63;5019200;28;20028;-79
2022/09/22 04:15:05;;;;;;;1.10;1.00;;;;;;;5.65;100.00;101744.31;5030572;28;20308;-78
2022/09/22 04:17:30;;;;;;;1.42;1.02;;;;;;;5.64;100.00;101741.75;5031147;28;20061;-79
2022/09/22 04:19:56;;;;;;;1.90;1.20;;;;;;;5.66;100.00;101750.44;5016416;28;20479;-78
2022/09/22 04:22:21;;;;;;;2.93;1.93;;;;;;;5.59;100.00;101739.41;5029660;28;20076;-79
2022/09/22 04:24:47;;;;;;;4.10;1.20;;;;;;;5.54;100.00;101733.59;5025970;28;20302;-79
2022/09/22 04:27:12;;;;;;;3.00;1.23;;;;;;;5.55;100.00;101726.50;5018248;28;20425;-79
2022/09/22 04:29:37;;;;;;;1.50;1.10;;;;;;;5.58;100.00;101726.28;5031124;28;20108;-79
2022/09/22 04:32:03;;;;;;;5.73;1.27;;;;;;;5.56;100.00;101733.50;5030307;28;20024;-79
2022/09/22 04:34:28;;;;;;;1.88;0.95;;;;;;;5.50;100.00;101716.22;5030242;28;20133;-78
2022/09/22 04:36:54;;;;;;;1.30;0.93;;;;;;;5.54;100.00;101724.81;5029476;28;20041;-79
2022/09/22 04:39:19;;;;;;;1.30;1.20;;;;;;;5.53;100.00;101725.78;5017372;28;20277;-79
2022/09/22 04:41:45;;;;;;;4.50;1.50;;;;;;;5.49;100.00;101711.88;5028753;28;20055;-78
2022/09/22 04:44:10;;;;;;;1.40;1.10;;;;;;;5.50;100.00;101722.38;5028098;28;20044;-79
2022/09/22 04:46:35;;;;;;;4.90;1.33;;;;;;;5.44;100.00;101708.72;5048492;28;20044;-79
2022/09/22 04:49:01;;;;;;;1.53;1.20;;;;;;;5.52;100.00;101716.13;5029198;28;20056;-79
2022/09/22 04:51:26;;;;;;;2.53;1.23;;;;;;;5.44;100.00;101711.34;5015903;28;20033;-79
2022/09/22 04:53:51;;;;;;;1.50;1.13;;;;;;;5.40;100.00;101705.41;5031283;28;20024;-78
2022/09/22 04:56:17;;;;;;;2.47;1.40;;;;;;;5.44;100.00;101720.13;5031142;28;20060;-78
2022/09/22 04:58:42;;;;;;;2.27;1.73;;;;;;;5.42;100.00;101716.75;5031208;28;20033;-78
2022/09/22 05:01:09;;;;;;;5.65;2.10;;;;;;;5.43;100.00;101723.75;5002045;28;20029;-79
2022/09/22 05:03:37;;;;;;;2.63;1.85;;;;;;;5.41;100.00;101725.66;5017208;28;20549;-78
2022/09/22 05:06:04;;;;;;;2.40;1.50;;;;;;;5.42;100.00;101732.63;5029126;28;20036;-79
2022/09/22 05:08:29;;;;;;;3.15;1.30;;;;;;;5.41;100.00;101730.94;5031704;28;20017;-78
2022/09/22 05:10:55;;;;;;;2.73;1.00;;;;;;;5.45;100.00;101732.41;5044311;28;20402;-79
2022/09/22 05:13:21;;;;;;;3.67;1.60;;;;;;;5.40;100.00;101723.94;5028305;28;20036;-79
2022/09/22 05:15:46;;;;;;;1.50;1.02;;;;;;;5.44;100.00;101719.31;5048361;28;20043;-79
2022/09/22 05:18:11;;;;;;;4.43;1.63;;;;;;;5.48;100.00;101731.38;5023823;28;20032;-79
2022/09/22 05:20:38;;;;;;;2.67;1.37;;;;;;;5.52;100.00;101726.72;4999198;28;20288;-79
2022/09/22 05:23:05;;;;;;;;;;;;;;;5.57;100.00;101735.19;5032135;28;20025;-78
2022/09/22 05:25:30;;;;;;;2.10;1.33;;;;;;;5.60;100.00;101735.00;5013669;28;19917;-79
2022/09/22 05:27:56;;;;;;;3.60;1.40;;;;;;;5.57;100.00;101738.69;5025643;28;20099;-79
2022/09/22 05:30:24;;;;;;;4.87;1.33;;;;;;;5.62;100.00;101741.00;5026661;28;20037;-79
2022/09/22 05:32:50;;;;;;;4.00;2.15;;;;;;;5.61;100.00;101739.31;5008188;28;20047;-79
2022/09/22 05:35:21;;;;;;;34.53;16.13;;;;;;;5.63;100.00;101734.78;5026954;28;20047;-79
2022/09/22 05:37:48;;;;;;;19.02;9.45;;;;;;;5.71;100.00;101737.72;5027542;28;20124;-79
2022/09/22 05:40:14;;;;;;;8.23;3.40;;;;;;;5.71;100.00;101732.41;5013505;28;20024;-79
2022/09/22 05:42:45;;;;;;;4.05;1.88;;;;;;;5.83;100.00;101741.31;5044788;28;20079;-79
2022/09/22 05:45:11;;;;;;;2.35;1.75;;;;;;;5.90;100.00;101743.44;5044521;28;20387;-78
2022/09/22 05:47:37;;;;;;;2.67;1.58;;;;;;;5.97;100.00;101748.34;5016443;28;20025;-79
2022/09/22 05:50:03;;;;;;;;;;;;;;;6.01;100.00;101755.13;5041591;28;20047;-79
2022/09/22 05:52:28;;;;;;;;;;;;;;;6.06;100.00;101755.63;5024992;28;19956;-79
2022/09/22 05:54:53;;;;;;;3.63;1.40;;;;;;;6.09;100.00;101740.38;5042350;28;19979;-79
2022/09/22 05:57:24;;;;;;;3.13;2.07;;;;;;;6.25;100.00;101757.81;5025835;28;20558;-79
2022/09/22 05:59:50;;;;;;;3.25;1.60;;;;;;;6.33;100.00;101768.75;5043504;28;20496;-79
2022/09/22 06:02:16;;;;;;;2.10;1.60;;;;;;;7.03;100.00;101802.56;5024627;28;20026;-79
2022/09/22 06:04:41;;;;;;;5.95;3.38;;;;;;;8.21;100.00;101840.56;5046760;28;20052;-79
2022/09/22 06:07:06;;;;;;;8.90;3.40;;;;;;;9.26;100.00;101825.03;5045626;28;20017;-79
2022/09/22 06:09:32;;;;;;;7.80;3.30;;;;;;;10.05;100.00;101797.91;5046551;28;20037;-79
2022/09/22 06:11:57;;;;;;;3.63;1.92;;;;;;;10.51;100.00;101738.66;5024869;28;20033;-79
2022/09/22 06:14:23;;;;;;;5.47;1.87;;;;;;;9.98;100.00;101629.50;5015025;28;20033;-79
2022/09/22 06:16:48;;;;;;;3.33;1.57;;;;;;;10.19;100.00;101584.03;5024093;28;20021;-79
2022/09/22 06:19:14;;;;;;;3.63;1.67;;;;;;;10.90;100.00;101602.44;5043013;28;20399;-80
2022/09/22 06:21:39;;;;;;;2.23;1.30;;;;;;;11.28;100.00;101546.31;4999835;28;20124;-80
2022/09/22 06:24:05;;;;;;;1.60;1.13;;;;;;;11.97;100.00;101507.53;5023757;28;20107;-80
2022/09/22 06:26:31;;;;;;;3.28;1.10;;;;;;;12.47;100.00;101386.41;5013806;28;20025;-80
2022/09/22 06:28:57;;;;;;;2.70;1.45;;;;;;;12.93;100.00;101274.38;5025665;28;20413;-79
2022/09/22 06:31:23;;;;;;;5.07;2.47;;;;;;;13.42;100.00;101143.03;5027329;28;20591;-80
2022/09/22 06:33:49;;;;;;;2.20;1.70;;;;;;;13.72;100.00;101022.53;5030899;28;20036;-80
2022/09/22 06:36:22;;;;;;;4.07;1.77;;;;;;;13.87;100.00;100845.47;5027849;28;20017;-80
2022/09/22 06:38:47;;;;;;;2.88;1.50;;;;;;;13.84;100.00;100685.66;5012948;28;20037;-80
2022/09/22 06:41:13;;;;;;;2.33;1.33;;;;;;;13.50;100.00;100646.78;5017266;28;20025;-80
2022/09/22 06:43:38;;;;;;;3.40;1.63;;;;;;;13.60;100.00;100772.63;5032533;28;20041;-79
2022/09/22 06:46:03;;;;;;;3.73;1.23;;;;;;;13.67;100.00;100767.34;5046282;28;20028;-79
2022/09/22 06:48:30;;;;;;;3.20;1.30;;;;;;;14.08;100.00;100844.78;5011911;28;20041;-79
2022/09/22 06:50:56;;;;;;;1.65;1.40;;;;;;;14.42;100.00;100856.84;5031114;28;20028;-79
2022/09/22 06:53:23;;;;;;;2.42;1.08;;;;;;;14.64;100.00;100834.44;5021939;28;20037;-79
2022/09/22 06:55:48;;;;;;;3.20;1.45;;;;;;;14.53;100.00;100824.13;5019536;28;20122;-78
2022/09/22 06:58:14;;;;;;;3.90;1.30;;;;;;;14.64;100.00;100845.19;5004334;28;20037;-81
2022/09/22 07:00:42;;;;;;;2.55;1.05;;;;;;;14.80;100.00;100843.31;5041310;28;20032;-79
2022/09/22 07:03:21;;;;;;;2.08;1.10;;;;;;;14.47;100.00;100723.66;5021941;28;20033;-81
2022/09/22 07:06:01;;;;;;;3.13;1.23;;;;;;;14.15;100.00;100574.56;5010288;28;20037;-79
2022/09/22 07:08:29;;;;;;;3.03;2.17;;;;;;;14.27;100.00;100660.81;5037616;28;20033;-79
2022/09/22 07:11:03;;;;;;;4.03;1.65;;;;;;;14.45;100.00;100794.69;5008510;28;20147;-80
2022/09/22 07:13:30;;;;;;;2.92;1.10;;;;;;;14.57;100.00;100728.75;4992628;28;20099;-80
2022/09/22 07:16:00;;;;;;;3.05;1.50;;;;;;;14.67;100.00;100627.16;5008514;28;20013;-79
2022/09/22 07:18:28;;;;;;;4.93;1.35;;;;;;;15.00;100.00;100653.50;5020530;28;20045;-78
2022/09/22 07:21:11;;;;;;;1.98;1.42;;;;;;;15.03;100.00;100646.91;5021314;28;20119;-80
2022/09/22 07:23:37;;;;;;;2.58;1.50;;;;;;;15.25;100.00;100690.75;5024538;28;20041;-79
2022/09/22 07:26:05;;;;;;;1.77;1.42;;;;;;;14.50;100.00;100494.13;5020433;28;20052;-80
2022/09/22 07:28:33;;;;;;;2.15;1.17;;;;;;;14.87;100.00;100667.69;5010379;28;20041;-80
2022/09/22 07:31:07;;;;;;;1.85;1.45;;;;;;;14.85;100.00;100610.59;5037161;28;20336;-78
2022/09/22 07:33:33;;;;;;;2.80;1.10;;;;;;;14.91;100.00;100590.16;5034470;28;20083;-80
2022/09/22 07:36:07;;;;;;;1.98;1.08;;;;;;;15.35;100.00;100627.50;5020839;28;20079;-80
2022/09/22 07:38:37;;;;;;;2.22;1.75;;;;;;;15.04;99.78;100551.81;5007565;28;20099;-79
2022/09/22 07:41:06;;;;;;;2.13;1.30;;;;;;;15.58;97.88;100612.97;5020108;28;20555;-79
2022/09/22 07:43:32;;;;;;;4.00;1.30;;;;;;;15.59;99.46;100717.72;4992716;28;20021;-80
2022/09/22 07:45:58;;;;;;;1.92;1.58;;;;;;;14.88;97.26;100474.97;5010604;28;20029;-78
2022/09/22 07:48:36;;;;;;;1.63;1.10;;;;;;;15.78;98.08;100742.28;4990482;28;20428;-78
2022/09/22 07:51:10;;;;;;;1.75;1.60;;;;;;;16.55;94.52;100724.22;5021573;28;20033;-80
2022/09/22 07:53:38;;;;;;;1.42;1.00;;;;;;;17.52;89.30;100631.19;5033781;28;20048;-79
2022/09/22 07:56:05;;;;;;;3.40;1.70;;;;;;;17.44;85.70;100402.84;5019181;28;20020;-79
2022/09/22 07:58:32;;;;;;;3.13;1.55;;;;;;;17.99;85.21;100555.44;5007147;28;20029;-80
2022/09/22 08:00:58;;;;;;;1.15;1.05;;;;;;;17.95;82.46;100422.69;5019995;28;20020;-80
2022/09/22 08:03:24;;;;;;;2.50;1.17;;;;;;;18.46;82.64;100547.88;5020354;28;20034;-82
2022/09/22 08:05:52;;;;;;;;;;;;;;;18.99;80.61;100539.34;5016479;28;20466;-79
2022/09/22 08:08:18;;;;;;;2.55;1.40;;;;;;;19.24;79.19;100522.22;5034025;28;19953;-80
2022/09/22 08:10:43;;;;;;;1.85;1.50;;;;;;;18.52;78.51;100377.53;5021564;28;20499;-79
2022/09/22 08:13:08;;;;;;;1.73;1.40;;;;;;;18.87;78.71;100498.69;5037111;28;20110;-79
2022/09/22 08:15:35;;;;;;;4.70;1.60;;;;;;;19.04;76.76;100435.88;5009579;28;20026;-79
2022/09/22 08:18:02;;;;;;;2.28;1.10;;;;;;;19.59;74.69;100414.13;5014911;28;20028;-79
2022/09/22 08:20:28;;;;;;;2.53;1.30;;;;;;;18.68;71.87;99988.63;5010625;28;20528;-78
2022/09/22 08:22:59;;;;;;;1.23;1.10;;;;;;;18.38;74.70;100278.72;5016162;28;20037;-79
2022/09/22 08:25:25;;;;;;;2.85;1.50;;;;;;;19.28;72.89;100388.94;5018287;28;20038;-79
2022/09/22 08:27:50;;;;;;;2.73;1.50;;;;;;;19.92;70.68;100318.00;5020324;28;20074;-80
2022/09/22 08:30:18;;;;;;;4.80;1.20;;;;;;;19.89;70.49;100405.19;5022557;28;20061;-80
2022/09/22 08:32:44;;;;;;;2.83;1.33;;;;;;;20.02;67.66;100145.69;5040075;28;20032;-79
2022/09/22 08:35:10;;;;;;;1.98;1.40;;;;;;;20.97;68.22;100496.16;5015440;28;20033;-79
2022/09/22 08:37:36;;;;;;;1.50;1.38;;;;;;;19.99;65.59;99989.03;4993397;28;20021;-78
2022/09/22 08:40:04;;;;;;;1.30;1.20;;;;;;;19.43;67.60;100130.53;5008168;28;20541;-79
2022/09/22 08:42:32;;;;;;;1.92;1.48;;;;;;;19.26;69.09;100328.78;4992376;28;20017;-78
2022/09/22 08:45:03;;;;;;;1.65;1.40;;;;;;;20.43;68.04;100519.81;4993140;28;20346;-79
2022/09/22 08:53:21;;;;;;;2.50;1.70;;;;;;;18.23;69.56;100240.41;5016517;28;20702;-78
2022/09/22 08:55:54;;;;;;;4.90;1.42;;;;;;;18.82;66.66;100119.06;5033906;28;20080;-79
2022/09/22 08:58:42;;;;;;;4.82;1.40;;;;;;;17.69;70.29;100257.13;5022334;28;20041;-78
2022/09/22 09:01:27;;;;;;;4.03;1.50;;;;;;;17.79;75.12;100828.22;5020754;28;20446;-78
2022/09/22 09:04:19;;;;;;;7.20;2.30;;;;;;;19.28;68.04;100545.91;5023394;28;20609;-78
2022/09/22 09:06:54;;;;;;;6.22;2.13;;;;;;;20.45;67.36;100767.16;5004406;28;20406;-78
2022/09/22 09:09:37;;;;;;;1.75;1.48;;;;;;;20.07;64.75;100380.72;5022382;28;20037;-79
2022/09/22 09:12:39;;;;;;;3.45;1.48;;;;;;;19.71;65.49;100398.75;5020540;28;20391;-79
2022/09/22 09:15:14;;;;;;;1.70;1.60;;;;;;;19.56;67.91;100609.53;4996238;28;20037;-79
2022/09/22 09:17:44;;;;;;;5.25;1.92;;;;;;;19.96;66.39;100606.38;4992806;28;20028;-79
2022/09/22 09:20:18;;;;;;;3.80;1.80;;;;;;;19.43;66.60;100482.44;5036326;28;20450;-79
2022/09/22 09:22:54;;;;;;;2.22;1.35;;;;;;;19.88;65.81;100602.13;5008522;28;20097;-79
2022/09/22 09:25:37;;;;;;;3.55;1.40;;;;;;;19.83;67.43;100769.94;5009359;28;20057;-79
2022/09/22 09:28:06;;;;;;;2.85;1.70;;;;;;;20.09;66.65;100782.38;5003819;28;20060;-79
2022/09/22 09:30:42;;;;;;;1.83;1.60;;;;;;;20.85;63.97;100698.84;4994521;28;20025;-79
2022/09/22 09:33:31;;;;;;;2.92;1.83;;;;;;;20.12;65.01;100567.81;5036185;28;20039;-79
2022/09/22 09:35:57;;;;;;;2.35;1.92;;;;;;;19.69;67.55;100752.97;5035446;28;20039;-78
2022/09/22 09:38:30;;;;;;;2.20;1.38;;;;;;;20.94;63.64;100724.59;5023316;28;20029;-78
2022/09/22 09:41:10;;;;;;;2.95;1.88;;;;;;;20.29;60.59;100117.19;5023226;28;20044;-78
2022/09/22 09:43:36;;;;;;;2.17;1.70;;;;;;;19.04;62.66;100032.78;5020502;28;20029;-79
2022/09/22 09:46:28;;;;;;;5.18;1.35;;;;;;;18.58;65.53;100326.31;5014451;28;20032;-78
2022/09/22 09:49:05;;;;;;;3.55;1.40;;;;;;;20.68;60.54;100423.91;5018991;28;20040;-78
2022/09/22 09:51:34;;;;;;;2.47;1.70;;;;;;;20.89;58.89;100333.72;5034536;28;20490;-78
2022/09/22 09:54:04;;;;;;;4.57;1.42;;;;;;;19.93;59.22;100027.09;5019571;28;20028;-79
2022/09/22 09:56:31;;;;;;;3.28;1.50;;;;;;;20.35;61.82;100572.50;5032350;28;20025;-78
2022/09/22 10:01:52;;;;;;;4.72;2.10;;;;;;;18.32;62.97;100095.84;5037366;28;20047;-78
2022/09/22 10:04:23;;;;;;;3.47;1.40;;;;;;;19.59;62.52;100535.97;5020903;28;20201;-78
2022/09/22 10:06:49;;;;;;;2.92;1.73;;;;;;;19.37;61.96;100386.75;4991682;28;20099;-78
2022/09/22 10:09:27;;;;;;;2.63;1.83;;;;;;;18.97;63.96;100485.44;5020447;28;20018;-78
2022/09/22 10:11:57;;;;;;;2.60;1.83;;;;;;;19.81;62.30;100610.31;5007498;28;20125;-78
2022/09/22 10:14:26;;;;;;;3.47;1.60;;;;;;;20.54;61.48;100719.69;5037017;28;20067;-78
2022/09/22 10:16:51;;;;;;;3.97;1.85;;;;;;;19.49;59.25;100005.06;5021303;28;20009;-78
2022/09/22 10:19:21;;;;;;;5.40;1.87;;;;;;;19.52;62.63;100560.41;5035137;28;20037;-78
2022/09/22 10:21:47;;;;;;;2.25;1.45;;;;;;;19.75;58.93;100139.94;5031795;28;20280;-78
2022/09/22 10:24:30;;;;;;;2.85;1.30;;;;;;;18.68;60.00;99986.78;5017846;28;20434;-78
2022/09/22 10:26:56;;;;;;;2.35;2.05;;;;;;;19.29;61.72;100446.59;5004650;28;20061;-78
2022/09/22 10:29:23;;;;;;;3.75;1.45;;;;;;;20.99;59.89;100767.31;5036541;28;20324;-78
2022/09/22 10:32:06;;;;;;;4.38;1.10;;;;;;;21.78;57.03;100568.78;5020555;28;20063;-77
2022/09/22 10:34:39;;;;;;;4.97;1.98;;;;;;;21.90;54.94;100312.19;5032270;28;20033;-78
2022/09/22 10:37:09;;;;;;;2.45;1.33;;;;;;;20.19;58.38;100224.34;5037571;28;20029;-78
2022/09/22 10:39:52;;;;;;;3.75;1.50;;;;;;;20.43;56.67;100103.09;5034014;28;20034;-78
2022/09/22 10:42:39;;;;;;;2.50;1.60;;;;;;;19.73;56.88;99881.28;5016758;28;20057;-78
2022/09/22 10:45:14;;;;;;;1.85;1.55;;;;;;;19.16;59.66;100110.16;5016015;28;20037;-78
2022/09/22 10:47:57;;;;;;;7.95;2.20;;;;;;;19.97;59.49;100380.44;5019695;28;20037;-78
2022/09/22 10:50:27;;;;;;;3.90;1.85;;;;;;;19.07;60.85;100217.09;5032464;28;20048;-77
2022/09/22 10:53:12;;;;;;;2.65;1.58;;;;;;;18.81;62.89;100458.16;5040674;28;20040;-77
2022/09/22 10:55:51;;;;;;;5.95;1.90;;;;;;;19.13;61.57;100434.50;5022059;28;20034;-78
2022/09/22 10:58:25;;;;;;;3.70;1.85;;;;;;;19.46;60.72;100381.84;5005723;28;20124;-78
2022/09/22 11:01:06;;;;;;;5.82;2.45;;;;;;;18.17;63.67;100338.56;5017796;28;20047;-78
2022/09/22 11:04:00;;;;;;;8.43;2.67;;;;;;;19.64;62.42;100689.66;5021409;28;20518;-77
2022/09/22 11:13:15;;;;;;;3.10;1.67;;;;;;;21.60;56.53;100581.44;5040480;28;20591;-78
2022/09/22 11:15:54;;;;;;;2.80;1.75;;;;;;;20.75;55.99;100175.84;5036697;28;20375;-78
2022/09/22 11:18:38;;;;;;;3.25;1.80;;;;;;;20.48;55.75;100036.47;5022755;28;20041;-78
2022/09/22 11:21:31;;;;;;;5.25;1.98;;;;;;;19.70;56.57;99908.84;5022181;28;20033;-78
2022/09/22 11:24:09;;;;;;;4.95;2.20;;;;;;;20.51;56.03;100213.06;5036600;28;20040;-78
2022/09/22 11:26:47;;;;;;;5.88;2.10;;;;;;;19.04;56.20;99711.72;5036315;28;20383;-78
2022/09/22 11:29:34;;;;;;;12.30;2.20;;;;;;;20.45;56.87;100365.84;5037836;28;20048;-78
2022/09/22 11:32:41;;;;;;;5.45;2.55;;;;;;;18.94;58.10;99966.56;5018469;28;20040;-78
2022/09/22 11:35:39;;;;;;;5.55;1.90;;;;;;;19.74;57.13;100127.47;4944558;28;20066;-78
2022/09/22 11:38:25;;;;;;;4.45;1.33;;;;;;;21.31;56.02;100574.28;5009383;28;20399;-78
2022/09/22 11:41:15;;;;;;;5.50;1.40;;;;;;;21.22;54.96;100308.59;5022197;28;20505;-78
2022/09/22 11:43:54;;;;;;;7.10;2.53;;;;;;;19.65;56.88;100007.03;5023094;28;20037;-78
2022/09/22 11:46:31;;;;;;;3.63;1.98;;;;;;;18.27;60.69;100082.22;5036036;28;20082;-78
2022/09/22 11:49:08;;;;;;;4.07;1.63;;;;;;;18.48;59.82;100108.72;5039034;28;20029;-78
2022/09/22 11:52:13;;;;;;;2.97;1.52;;;;;;;18.72;60.08;100231.28;5034700;28;20091;-78
2022/09/22 11:54:58;;;;;;;4.97;1.52;;;;;;;21.43;56.08;100681.84;5015131;28;20048;-78
2022/09/22 11:57:30;;;;;;;2.38;1.60;;;;;;;21.36;56.49;100647.69;5037137;28;20041;-78
2022/09/22 12:00:09;;;;;;;4.05;1.42;;;;;;;21.70;52.69;100247.53;5039924;28;20033;-78
2022/09/22 12:02:45;;;;;;;4.05;1.35;;;;;;;19.40;54.51;99558.03;5037645;28;20575;-79